sensor_id;sensor_type;location;lat;lon;timestamp;P1;durP1;ratioP1;P2;durP2;ratioP2
54929;SDS011;40833;53.238;6.576;2023-03-02T00:00:44;32.30;;;19.10;;
54929;SDS011;40833;53.238;6.576;2023-03-02T00:03:11;49.07;;;27.60;;
54929;SDS011;40833;53.238;6.576;2023-03-02T00:05:39;34.40;;;19.80;;
54929;SDS011;40833;53.238;6.576;2023-03-02T00:08:06;17.23;;;13.93;;
54929;SDS011;40833;53.238;6.576;2023-03-02T00:10:33;21.17;;;14.97;;
54929;SDS011;40833;53.238;6.576;2023-03-02T00:13:00;31.67;;;19.53;;
54929;SDS011;40833;53.238;6.576;2023-03-02T00:15:27;30.80;;;19.50;;
54929;SDS011;40833;53.238;6.576;2023-03-02T00:17:52;32.63;;;17.83;;
54929;SDS011;40833;53.238;6.576;2023-03-02T00:20:18;24.00;;;16.03;;
54929;SDS011;40833;53.238;6.576;2023-03-02T00:22:44;15.90;;;13.27;;
54929;SDS011;40833;53.238;6.576;2023-03-02T00:25:11;19.47;;;12.73;;
54929;SDS011;40833;53.238;6.576;2023-03-02T00:27:38;17.13;;;12.13;;
54929;SDS011;40833;53.238;6.576;2023-03-02T00:30:04;20.20;;;14.07;;
54929;SDS011;40833;53.238;6.576;2023-03-02T00:32:32;23.90;;;13.97;;
54929;SDS011;40833;53.238;6.576;2023-03-02T00:34:58;20.53;;;12.50;;
54929;SDS011;40833;53.238;6.576;2023-03-02T00:37:24;20.63;;;12.87;;
54929;SDS011;40833;53.238;6.576;2023-03-02T00:39:52;16.20;;;10.97;;
54929;SDS011;40833;53.238;6.576;2023-03-02T00:42:18;14.63;;;10.50;;
54929;SDS011;40833;53.238;6.576;2023-03-02T00:44:44;16.00;;;11.27;;
54929;SDS011;40833;53.238;6.576;2023-03-02T00:47:10;17.27;;;11.73;;
54929;SDS011;40833;53.238;6.576;2023-03-02T00:49:36;20.30;;;12.17;;
54929;SDS011;40833;53.238;6.576;2023-03-02T00:52:02;17.23;;;11.37;;
54929;SDS011;40833;53.238;6.576;2023-03-02T00:54:29;19.00;;;12.07;;
54929;SDS011;40833;53.238;6.576;2023-03-02T00:56:55;30.93;;;16.60;;
54929;SDS011;40833;53.238;6.576;2023-03-02T00:59:21;13.63;;;11.20;;
54929;SDS011;40833;53.238;6.576;2023-03-02T01:01:59;35.17;;;18.63;;
54929;SDS011;40833;53.238;6.576;2023-03-02T01:04:30;18.67;;;12.80;;
54929;SDS011;40833;53.238;6.576;2023-03-02T01:07:05;16.40;;;11.37;;
54929;SDS011;40833;53.238;6.576;2023-03-02T01:09:34;21.60;;;12.90;;
54929;SDS011;40833;53.238;6.576;2023-03-02T01:12:00;19.63;;;11.90;;
54929;SDS011;40833;53.238;6.576;2023-03-02T01:14:26;21.03;;;12.67;;
54929;SDS011;40833;53.238;6.576;2023-03-02T01:16:52;17.03;;;12.00;;
54929;SDS011;40833;53.238;6.576;2023-03-02T01:19:18;24.10;;;14.47;;
54929;SDS011;40833;53.238;6.576;2023-03-02T01:21:43;18.67;;;13.53;;
54929;SDS011;40833;53.238;6.576;2023-03-02T01:24:09;20.80;;;14.00;;
54929;SDS011;40833;53.238;6.576;2023-03-02T01:26:35;17.47;;;12.97;;
54929;SDS011;40833;53.238;6.576;2023-03-02T01:29:02;18.63;;;14.07;;
54929;SDS011;40833;53.238;6.576;2023-03-02T01:31:28;27.90;;;16.27;;
54929;SDS011;40833;53.238;6.576;2023-03-02T01:33:54;18.77;;;13.90;;
54929;SDS011;40833;53.238;6.576;2023-03-02T01:36:20;25.10;;;13.53;;
54929;SDS011;40833;53.238;6.576;2023-03-02T01:38:46;20.10;;;13.93;;
54929;SDS011;40833;53.238;6.576;2023-03-02T01:41:12;18.90;;;12.80;;
54929;SDS011;40833;53.238;6.576;2023-03-02T01:43:38;21.20;;;14.07;;
54929;SDS011;40833;53.238;6.576;2023-03-02T01:49:06;20.67;;;14.87;;
54929;SDS011;40833;53.238;6.576;2023-03-02T01:51:37;22.67;;;15.60;;
54929;SDS011;40833;53.238;6.576;2023-03-02T01:54:09;27.73;;;16.60;;
54929;SDS011;40833;53.238;6.576;2023-03-02T01:56:41;25.83;;;16.20;;
54929;SDS011;40833;53.238;6.576;2023-03-02T01:59:13;21.80;;;15.87;;
54929;SDS011;40833;53.238;6.576;2023-03-02T02:01:43;24.57;;;15.90;;
54929;SDS011;40833;53.238;6.576;2023-03-02T02:04:14;26.38;;;17.58;;
54929;SDS011;40833;53.238;6.576;2023-03-02T02:06:41;25.23;;;17.13;;
54929;SDS011;40833;53.238;6.576;2023-03-02T02:09:13;25.20;;;17.27;;
54929;SDS011;40833;53.238;6.576;2023-03-02T02:11:43;29.13;;;18.97;;
54929;SDS011;40833;53.238;6.576;2023-03-02T02:14:10;32.43;;;20.20;;
54929;SDS011;40833;53.238;6.576;2023-03-02T02:16:36;28.93;;;18.27;;
54929;SDS011;40833;53.238;6.576;2023-03-02T02:19:03;31.80;;;20.83;;
54929;SDS011;40833;53.238;6.576;2023-03-02T02:21:42;32.50;;;20.17;;
54929;SDS011;40833;53.238;6.576;2023-03-02T02:24:11;32.13;;;20.57;;
54929;SDS011;40833;53.238;6.576;2023-03-02T02:26:47;34.77;;;21.03;;
54929;SDS011;40833;53.238;6.576;2023-03-02T02:31:56;35.87;;;21.07;;
54929;SDS011;40833;53.238;6.576;2023-03-02T02:34:31;32.77;;;20.30;;
54929;SDS011;40833;53.238;6.576;2023-03-02T02:37:07;33.60;;;21.33;;
54929;SDS011;40833;53.238;6.576;2023-03-02T02:39:40;33.37;;;21.00;;
54929;SDS011;40833;53.238;6.576;2023-03-02T02:42:14;34.47;;;21.73;;
54929;SDS011;40833;53.238;6.576;2023-03-02T02:44:48;36.40;;;22.00;;
54929;SDS011;40833;53.238;6.576;2023-03-02T02:47:17;40.57;;;23.37;;
54929;SDS011;40833;53.238;6.576;2023-03-02T02:49:44;37.43;;;23.07;;
54929;SDS011;40833;53.238;6.576;2023-03-02T02:52:13;38.57;;;24.07;;
54929;SDS011;40833;53.238;6.576;2023-03-02T02:54:42;43.83;;;25.20;;
54929;SDS011;40833;53.238;6.576;2023-03-02T02:57:12;43.00;;;24.67;;
54929;SDS011;40833;53.238;6.576;2023-03-02T02:59:48;42.90;;;24.47;;
54929;SDS011;40833;53.238;6.576;2023-03-02T03:02:19;41.20;;;24.50;;
54929;SDS011;40833;53.238;6.576;2023-03-02T03:04:48;42.43;;;24.50;;
54929;SDS011;40833;53.238;6.576;2023-03-02T03:07:17;45.03;;;25.67;;
54929;SDS011;40833;53.238;6.576;2023-03-02T03:09:50;42.40;;;25.27;;
54929;SDS011;40833;53.238;6.576;2023-03-02T03:12:29;45.40;;;25.30;;
54929;SDS011;40833;53.238;6.576;2023-03-02T03:14:57;47.23;;;26.57;;
54929;SDS011;40833;53.238;6.576;2023-03-02T03:17:24;42.00;;;24.80;;
54929;SDS011;40833;53.238;6.576;2023-03-02T03:19:50;41.67;;;24.40;;
54929;SDS011;40833;53.238;6.576;2023-03-02T03:22:15;42.90;;;25.33;;
54929;SDS011;40833;53.238;6.576;2023-03-02T03:24:42;47.33;;;25.80;;
54929;SDS011;40833;53.238;6.576;2023-03-02T03:27:09;51.90;;;27.13;;
54929;SDS011;40833;53.238;6.576;2023-03-02T03:29:39;45.13;;;25.73;;
54929;SDS011;40833;53.238;6.576;2023-03-02T03:32:06;49.97;;;26.87;;
54929;SDS011;40833;53.238;6.576;2023-03-02T03:34:33;47.73;;;27.07;;
54929;SDS011;40833;53.238;6.576;2023-03-02T03:37:05;40.38;;;25.42;;
54929;SDS011;40833;53.238;6.576;2023-03-02T03:39:32;45.90;;;28.07;;
54929;SDS011;40833;53.238;6.576;2023-03-02T03:41:58;50.67;;;27.07;;
54929;SDS011;40833;53.238;6.576;2023-03-02T03:44:24;52.33;;;27.87;;
54929;SDS011;40833;53.238;6.576;2023-03-02T03:46:49;47.60;;;27.50;;
54929;SDS011;40833;53.238;6.576;2023-03-02T03:49:15;52.83;;;27.80;;
54929;SDS011;40833;53.238;6.576;2023-03-02T03:51:41;46.77;;;27.67;;
54929;SDS011;40833;53.238;6.576;2023-03-02T03:54:07;61.47;;;29.47;;
54929;SDS011;40833;53.238;6.576;2023-03-02T03:56:39;61.40;;;28.47;;
54929;SDS011;40833;53.238;6.576;2023-03-02T03:59:08;60.80;;;30.60;;
54929;SDS011;40833;53.238;6.576;2023-03-02T04:01:37;61.27;;;29.60;;
54929;SDS011;40833;53.238;6.576;2023-03-02T04:04:06;54.37;;;29.50;;
54929;SDS011;40833;53.238;6.576;2023-03-02T04:06:34;61.77;;;31.17;;
54929;SDS011;40833;53.238;6.576;2023-03-02T04:09:00;79.70;;;33.27;;
54929;SDS011;40833;53.238;6.576;2023-03-02T04:11:36;73.30;;;33.10;;
54929;SDS011;40833;53.238;6.576;2023-03-02T04:14:04;66.80;;;31.37;;
54929;SDS011;40833;53.238;6.576;2023-03-02T04:16:31;75.20;;;33.23;;
54929;SDS011;40833;53.238;6.576;2023-03-02T04:18:57;82.47;;;34.17;;
54929;SDS011;40833;53.238;6.576;2023-03-02T04:21:24;132.60;;;34.53;;
54929;SDS011;40833;53.238;6.576;2023-03-02T04:23:50;108.43;;;33.93;;
54929;SDS011;40833;53.238;6.576;2023-03-02T04:26:15;212.73;;;35.70;;
54929;SDS011;40833;53.238;6.576;2023-03-02T04:28:41;144.43;;;37.00;;
54929;SDS011;40833;53.238;6.576;2023-03-02T04:31:07;141.03;;;35.90;;
54929;SDS011;40833;53.238;6.576;2023-03-02T04:33:33;109.33;;;34.93;;
54929;SDS011;40833;53.238;6.576;2023-03-02T04:35:59;99.27;;;34.53;;
54929;SDS011;40833;53.238;6.576;2023-03-02T04:38:25;173.00;;;38.53;;
54929;SDS011;40833;53.238;6.576;2023-03-02T04:40:54;114.20;;;36.83;;
54929;SDS011;40833;53.238;6.576;2023-03-02T04:43:20;135.13;;;39.37;;
54929;SDS011;40833;53.238;6.576;2023-03-02T04:45:46;136.33;;;40.73;;
54929;SDS011;40833;53.238;6.576;2023-03-02T04:48:12;219.13;;;36.03;;
54929;SDS011;40833;53.238;6.576;2023-03-02T04:50:38;189.43;;;37.17;;
54929;SDS011;40833;53.238;6.576;2023-03-02T04:53:04;205.80;;;34.73;;
54929;SDS011;40833;53.238;6.576;2023-03-02T04:55:30;172.37;;;35.30;;
54929;SDS011;40833;53.238;6.576;2023-03-02T04:57:56;192.33;;;36.77;;
54929;SDS011;40833;53.238;6.576;2023-03-02T05:00:22;226.90;;;37.23;;
54929;SDS011;40833;53.238;6.576;2023-03-02T05:02:47;213.17;;;36.07;;
54929;SDS011;40833;53.238;6.576;2023-03-02T05:05:18;98.07;;;34.43;;
54929;SDS011;40833;53.238;6.576;2023-03-02T05:07:49;130.53;;;35.30;;
54929;SDS011;40833;53.238;6.576;2023-03-02T05:10:15;159.40;;;35.43;;
54929;SDS011;40833;53.238;6.576;2023-03-02T05:12:42;121.20;;;35.13;;
54929;SDS011;40833;53.238;6.576;2023-03-02T05:17:55;154.37;;;36.70;;
54929;SDS011;40833;53.238;6.576;2023-03-02T05:20:21;241.50;;;35.33;;
54929;SDS011;40833;53.238;6.576;2023-03-02T05:22:55;193.93;;;35.03;;
54929;SDS011;40833;53.238;6.576;2023-03-02T05:25:23;135.83;;;33.97;;
54929;SDS011;40833;53.238;6.576;2023-03-02T05:27:50;165.20;;;34.70;;
54929;SDS011;40833;53.238;6.576;2023-03-02T05:30:17;154.03;;;34.20;;
54929;SDS011;40833;53.238;6.576;2023-03-02T05:32:43;206.57;;;37.10;;
54929;SDS011;40833;53.238;6.576;2023-03-02T05:35:10;229.60;;;36.70;;
54929;SDS011;40833;53.238;6.576;2023-03-02T05:37:35;146.87;;;34.00;;
54929;SDS011;40833;53.238;6.576;2023-03-02T05:40:05;143.27;;;32.67;;
54929;SDS011;40833;53.238;6.576;2023-03-02T05:42:33;193.07;;;35.20;;
54929;SDS011;40833;53.238;6.576;2023-03-02T05:45:00;149.60;;;35.60;;
54929;SDS011;40833;53.238;6.576;2023-03-02T05:47:30;177.27;;;34.70;;
54929;SDS011;40833;53.238;6.576;2023-03-02T05:49:56;173.33;;;34.87;;
54929;SDS011;40833;53.238;6.576;2023-03-02T05:52:21;190.77;;;33.63;;
54929;SDS011;40833;53.238;6.576;2023-03-02T05:54:47;191.77;;;31.90;;
54929;SDS011;40833;53.238;6.576;2023-03-02T05:57:13;221.93;;;33.37;;
54929;SDS011;40833;53.238;6.576;2023-03-02T05:59:38;133.40;;;35.53;;
54929;SDS011;40833;53.238;6.576;2023-03-02T06:02:04;201.87;;;34.67;;
54929;SDS011;40833;53.238;6.576;2023-03-02T06:04:29;131.23;;;33.20;;
54929;SDS011;40833;53.238;6.576;2023-03-02T06:06:55;151.37;;;34.60;;
54929;SDS011;40833;53.238;6.576;2023-03-02T06:09:21;257.10;;;37.93;;
54929;SDS011;40833;53.238;6.576;2023-03-02T06:11:47;129.50;;;33.73;;
54929;SDS011;40833;53.238;6.576;2023-03-02T06:14:13;140.03;;;34.47;;
54929;SDS011;40833;53.238;6.576;2023-03-02T06:16:39;169.30;;;37.57;;
54929;SDS011;40833;53.238;6.576;2023-03-02T06:19:05;210.23;;;39.57;;
54929;SDS011;40833;53.238;6.576;2023-03-02T06:21:30;134.30;;;36.63;;
54929;SDS011;40833;53.238;6.576;2023-03-02T06:23:56;270.07;;;41.87;;
54929;SDS011;40833;53.238;6.576;2023-03-02T06:26:22;272.07;;;41.77;;
54929;SDS011;40833;53.238;6.576;2023-03-02T06:28:48;145.63;;;37.63;;
54929;SDS011;40833;53.238;6.576;2023-03-02T06:31:13;269.73;;;43.37;;
54929;SDS011;40833;53.238;6.576;2023-03-02T06:33:39;254.73;;;41.97;;
54929;SDS011;40833;53.238;6.576;2023-03-02T06:36:05;242.63;;;40.30;;
54929;SDS011;40833;53.238;6.576;2023-03-02T06:38:30;147.23;;;37.90;;
54929;SDS011;40833;53.238;6.576;2023-03-02T06:40:56;218.57;;;41.40;;
54929;SDS011;40833;53.238;6.576;2023-03-02T06:43:23;195.57;;;38.53;;
54929;SDS011;40833;53.238;6.576;2023-03-02T06:45:49;209.50;;;38.37;;
54929;SDS011;40833;53.238;6.576;2023-03-02T06:48:15;131.97;;;34.13;;
54929;SDS011;40833;53.238;6.576;2023-03-02T06:50:41;133.73;;;34.77;;
54929;SDS011;40833;53.238;6.576;2023-03-02T06:53:07;240.70;;;35.67;;
54929;SDS011;40833;53.238;6.576;2023-03-02T06:55:32;318.77;;;37.30;;
54929;SDS011;40833;53.238;6.576;2023-03-02T06:57:58;271.80;;;32.47;;
54929;SDS011;40833;53.238;6.576;2023-03-02T07:00:24;248.17;;;33.13;;
54929;SDS011;40833;53.238;6.576;2023-03-02T07:02:52;187.93;;;30.43;;
54929;SDS011;40833;53.238;6.576;2023-03-02T07:05:19;177.17;;;28.67;;
54929;SDS011;40833;53.238;6.576;2023-03-02T07:07:46;152.57;;;29.43;;
54929;SDS011;40833;53.238;6.576;2023-03-02T07:10:11;229.63;;;30.60;;
54929;SDS011;40833;53.238;6.576;2023-03-02T07:12:38;203.13;;;30.77;;
54929;SDS011;40833;53.238;6.576;2023-03-02T07:15:04;154.57;;;28.70;;
54929;SDS011;40833;53.238;6.576;2023-03-02T07:17:35;348.93;;;34.33;;
54929;SDS011;40833;53.238;6.576;2023-03-02T07:20:02;172.13;;;29.07;;
54929;SDS011;40833;53.238;6.576;2023-03-02T07:22:29;163.67;;;31.97;;
54929;SDS011;40833;53.238;6.576;2023-03-02T07:24:56;159.33;;;32.00;;
54929;SDS011;40833;53.238;6.576;2023-03-02T07:27:21;265.70;;;35.67;;
54929;SDS011;40833;53.238;6.576;2023-03-02T07:29:47;213.67;;;32.27;;
54929;SDS011;40833;53.238;6.576;2023-03-02T07:32:13;335.80;;;33.93;;
54929;SDS011;40833;53.238;6.576;2023-03-02T07:34:38;230.53;;;32.83;;
54929;SDS011;40833;53.238;6.576;2023-03-02T07:37:04;326.63;;;36.60;;
54929;SDS011;40833;53.238;6.576;2023-03-02T07:39:30;249.47;;;37.00;;
54929;SDS011;40833;53.238;6.576;2023-03-02T07:41:57;185.63;;;32.10;;
54929;SDS011;40833;53.238;6.576;2023-03-02T07:44:24;122.07;;;35.03;;
54929;SDS011;40833;53.238;6.576;2023-03-02T07:46:50;245.13;;;39.23;;
54929;SDS011;40833;53.238;6.576;2023-03-02T07:49:16;190.53;;;35.40;;
54929;SDS011;40833;53.238;6.576;2023-03-02T07:51:42;148.33;;;31.67;;
54929;SDS011;40833;53.238;6.576;2023-03-02T07:54:08;249.70;;;34.30;;
54929;SDS011;40833;53.238;6.576;2023-03-02T07:56:33;209.27;;;33.80;;
54929;SDS011;40833;53.238;6.576;2023-03-02T07:58:59;133.47;;;33.40;;
54929;SDS011;40833;53.238;6.576;2023-03-02T08:01:25;71.53;;;28.87;;
54929;SDS011;40833;53.238;6.576;2023-03-02T08:03:51;118.80;;;31.73;;
54929;SDS011;40833;53.238;6.576;2023-03-02T08:06:16;122.13;;;32.97;;
54929;SDS011;40833;53.238;6.576;2023-03-02T08:08:42;109.47;;;30.80;;
54929;SDS011;40833;53.238;6.576;2023-03-02T08:11:09;90.90;;;31.07;;
54929;SDS011;40833;53.238;6.576;2023-03-02T08:13:37;90.73;;;26.83;;
54929;SDS011;40833;53.238;6.576;2023-03-02T08:16:03;87.93;;;26.77;;
54929;SDS011;40833;53.238;6.576;2023-03-02T08:18:30;186.63;;;29.03;;
54929;SDS011;40833;53.238;6.576;2023-03-02T08:20:57;114.37;;;25.73;;
54929;SDS011;40833;53.238;6.576;2023-03-02T08:23:23;68.97;;;24.53;;
54929;SDS011;40833;53.238;6.576;2023-03-02T08:25:50;94.87;;;24.40;;
54929;SDS011;40833;53.238;6.576;2023-03-02T08:28:18;65.43;;;24.63;;
54929;SDS011;40833;53.238;6.576;2023-03-02T08:30:44;186.97;;;26.27;;
54929;SDS011;40833;53.238;6.576;2023-03-02T08:33:10;56.07;;;22.00;;
54929;SDS011;40833;53.238;6.576;2023-03-02T08:35:35;40.03;;;21.53;;
54929;SDS011;40833;53.238;6.576;2023-03-02T08:38:01;56.30;;;21.03;;
54929;SDS011;40833;53.238;6.576;2023-03-02T08:40:27;50.47;;;21.60;;
54929;SDS011;40833;53.238;6.576;2023-03-02T08:42:53;41.07;;;19.60;;
54929;SDS011;40833;53.238;6.576;2023-03-02T08:45:24;42.93;;;18.33;;
54929;SDS011;40833;53.238;6.576;2023-03-02T08:47:53;53.57;;;18.60;;
54929;SDS011;40833;53.238;6.576;2023-03-02T08:50:19;38.57;;;17.33;;
54929;SDS011;40833;53.238;6.576;2023-03-02T08:52:45;51.30;;;19.40;;
54929;SDS011;40833;53.238;6.576;2023-03-02T08:55:11;39.13;;;16.37;;
54929;SDS011;40833;53.238;6.576;2023-03-02T08:57:37;33.20;;;17.57;;
54929;SDS011;40833;53.238;6.576;2023-03-02T09:00:05;41.93;;;16.63;;
54929;SDS011;40833;53.238;6.576;2023-03-02T09:02:36;38.83;;;17.37;;
54929;SDS011;40833;53.238;6.576;2023-03-02T09:05:02;36.10;;;18.10;;
54929;SDS011;40833;53.238;6.576;2023-03-02T09:07:28;41.37;;;17.53;;
54929;SDS011;40833;53.238;6.576;2023-03-02T09:09:54;50.97;;;18.23;;
54929;SDS011;40833;53.238;6.576;2023-03-02T09:12:20;37.07;;;17.93;;
54929;SDS011;40833;53.238;6.576;2023-03-02T09:14:45;29.93;;;16.03;;
54929;SDS011;40833;53.238;6.576;2023-03-02T09:17:11;32.73;;;15.83;;
54929;SDS011;40833;53.238;6.576;2023-03-02T09:19:39;30.57;;;16.53;;
54929;SDS011;40833;53.238;6.576;2023-03-02T09:22:09;32.27;;;16.77;;
54929;SDS011;40833;53.238;6.576;2023-03-02T09:24:35;34.10;;;17.47;;
54929;SDS011;40833;53.238;6.576;2023-03-02T09:27:01;30.00;;;15.83;;
54929;SDS011;40833;53.238;6.576;2023-03-02T09:29:27;30.97;;;17.30;;
54929;SDS011;40833;53.238;6.576;2023-03-02T09:31:53;29.73;;;16.33;;
54929;SDS011;40833;53.238;6.576;2023-03-02T09:34:19;28.73;;;17.07;;
54929;SDS011;40833;53.238;6.576;2023-03-02T09:36:45;29.47;;;16.67;;
54929;SDS011;40833;53.238;6.576;2023-03-02T09:39:11;27.97;;;15.87;;
54929;SDS011;40833;53.238;6.576;2023-03-02T09:41:52;27.73;;;15.53;;
54929;SDS011;40833;53.238;6.576;2023-03-02T09:44:42;26.27;;;15.40;;
54929;SDS011;40833;53.238;6.576;2023-03-02T09:47:32;31.87;;;16.50;;
54929;SDS011;40833;53.238;6.576;2023-03-02T09:50:31;29.97;;;16.30;;
54929;SDS011;40833;53.238;6.576;2023-03-02T09:53:34;31.03;;;16.50;;
54929;SDS011;40833;53.238;6.576;2023-03-02T09:56:08;29.87;;;16.80;;
54929;SDS011;40833;53.238;6.576;2023-03-02T09:58:39;31.23;;;17.20;;
54929;SDS011;40833;53.238;6.576;2023-03-02T10:01:11;31.20;;;18.23;;
54929;SDS011;40833;53.238;6.576;2023-03-02T10:03:46;29.10;;;16.37;;
54929;SDS011;40833;53.238;6.576;2023-03-02T10:06:18;26.23;;;16.23;;
54929;SDS011;40833;53.238;6.576;2023-03-02T10:08:44;30.57;;;16.37;;
54929;SDS011;40833;53.238;6.576;2023-03-02T10:11:15;30.10;;;17.27;;
54929;SDS011;40833;53.238;6.576;2023-03-02T10:13:55;27.30;;;15.73;;
54929;SDS011;40833;53.238;6.576;2023-03-02T10:17:04;26.47;;;15.30;;
54929;SDS011;40833;53.238;6.576;2023-03-02T10:20:01;25.13;;;14.90;;
54929;SDS011;40833;53.238;6.576;2023-03-02T10:22:31;28.20;;;16.10;;
54929;SDS011;40833;53.238;6.576;2023-03-02T10:27:37;26.00;;;15.60;;
54929;SDS011;40833;53.238;6.576;2023-03-02T10:30:08;27.40;;;15.50;;
54929;SDS011;40833;53.238;6.576;2023-03-02T10:32:54;24.07;;;14.27;;
54929;SDS011;40833;53.238;6.576;2023-03-02T10:35:23;23.30;;;14.63;;
54929;SDS011;40833;53.238;6.576;2023-03-02T10:37:50;22.90;;;14.93;;
54929;SDS011;40833;53.238;6.576;2023-03-02T10:43:14;23.50;;;13.83;;
54929;SDS011;40833;53.238;6.576;2023-03-02T10:45:56;19.97;;;13.10;;
54929;SDS011;40833;53.238;6.576;2023-03-02T10:48:26;21.07;;;13.40;;
54929;SDS011;40833;53.238;6.576;2023-03-02T10:50:53;21.53;;;13.37;;
54929;SDS011;40833;53.238;6.576;2023-03-02T10:53:20;18.17;;;12.03;;
54929;SDS011;40833;53.238;6.576;2023-03-02T10:55:46;18.03;;;12.23;;
54929;SDS011;40833;53.238;6.576;2023-03-02T10:58:35;19.83;;;12.47;;
54929;SDS011;40833;53.238;6.576;2023-03-02T11:01:01;20.23;;;13.23;;
54929;SDS011;40833;53.238;6.576;2023-03-02T11:03:28;24.87;;;15.27;;
54929;SDS011;40833;53.238;6.576;2023-03-02T11:05:56;22.73;;;14.67;;
54929;SDS011;40833;53.238;6.576;2023-03-02T11:08:23;21.70;;;13.67;;
54929;SDS011;40833;53.238;6.576;2023-03-02T11:10:52;22.80;;;14.27;;
54929;SDS011;40833;53.238;6.576;2023-03-02T11:13:27;21.65;;;14.05;;
54929;SDS011;40833;53.238;6.576;2023-03-02T11:16:37;23.85;;;14.13;;
54929;SDS011;40833;53.238;6.576;2023-03-02T11:18:54;19.77;;;12.17;;
54929;SDS011;40833;53.238;6.576;2023-03-02T11:27:02;20.87;;;12.93;;
54929;SDS011;40833;53.238;6.576;2023-03-02T11:37:08;19.47;;;13.13;;
54929;SDS011;40833;53.238;6.576;2023-03-02T11:39:49;22.00;;;13.97;;
54929;SDS011;40833;53.238;6.576;2023-03-02T11:42:43;20.43;;;12.90;;
54929;SDS011;40833;53.238;6.576;2023-03-02T11:45:15;19.43;;;13.33;;
54929;SDS011;40833;53.238;6.576;2023-03-02T11:47:46;22.40;;;13.40;;
54929;SDS011;40833;53.238;6.576;2023-03-02T11:50:19;19.40;;;12.90;;
54929;SDS011;40833;53.238;6.576;2023-03-02T11:52:47;20.07;;;12.67;;
54929;SDS011;40833;53.238;6.576;2023-03-02T11:55:20;21.30;;;13.10;;
54929;SDS011;40833;53.238;6.576;2023-03-02T11:57:49;20.30;;;13.03;;
54929;SDS011;40833;53.238;6.576;2023-03-02T12:02:43;20.53;;;13.67;;
54929;SDS011;40833;53.238;6.576;2023-03-02T12:05:25;19.63;;;13.30;;
54929;SDS011;40833;53.238;6.576;2023-03-02T12:07:59;18.73;;;12.07;;
54929;SDS011;40833;53.238;6.576;2023-03-02T12:11:05;22.53;;;12.97;;
54929;SDS011;40833;53.238;6.576;2023-03-02T12:13:40;18.30;;;11.87;;
54929;SDS011;40833;53.238;6.576;2023-03-02T12:16:20;17.33;;;12.20;;
54929;SDS011;40833;53.238;6.576;2023-03-02T12:21:59;21.53;;;14.73;;
54929;SDS011;40833;53.238;6.576;2023-03-02T12:24:33;22.97;;;13.80;;
54929;SDS011;40833;53.238;6.576;2023-03-02T12:27:06;22.10;;;13.20;;
54929;SDS011;40833;53.238;6.576;2023-03-02T12:32:09;22.67;;;15.13;;
54929;SDS011;40833;53.238;6.576;2023-03-02T12:34:42;20.93;;;14.87;;
54929;SDS011;40833;53.238;6.576;2023-03-02T12:37:30;22.00;;;14.33;;
54929;SDS011;40833;53.238;6.576;2023-03-02T12:40:16;24.10;;;14.53;;
54929;SDS011;40833;53.238;6.576;2023-03-02T12:46:01;22.27;;;14.57;;
54929;SDS011;40833;53.238;6.576;2023-03-02T12:49:27;19.53;;;14.00;;
54929;SDS011;40833;53.238;6.576;2023-03-02T12:52:15;18.40;;;13.07;;
54929;SDS011;40833;53.238;6.576;2023-03-02T12:55:25;17.08;;;12.40;;
54929;SDS011;40833;53.238;6.576;2023-03-02T12:57:51;20.23;;;14.63;;
54929;SDS011;40833;53.238;6.576;2023-03-02T13:00:26;22.47;;;15.77;;
54929;SDS011;40833;53.238;6.576;2023-03-02T13:02:55;19.63;;;14.77;;
54929;SDS011;40833;53.238;6.576;2023-03-02T13:05:27;19.30;;;15.00;;
54929;SDS011;40833;53.238;6.576;2023-03-02T13:08:04;19.83;;;15.40;;
54929;SDS011;40833;53.238;6.576;2023-03-02T13:10:51;21.23;;;15.67;;
54929;SDS011;40833;53.238;6.576;2023-03-02T13:13:22;21.90;;;16.50;;
54929;SDS011;40833;53.238;6.576;2023-03-02T13:16:05;20.48;;;16.30;;
54929;SDS011;40833;53.238;6.576;2023-03-02T13:18:48;21.83;;;16.73;;
54929;SDS011;40833;53.238;6.576;2023-03-02T13:21:32;26.17;;;16.77;;
54929;SDS011;40833;53.238;6.576;2023-03-02T13:24:01;21.63;;;15.07;;
54929;SDS011;40833;53.238;6.576;2023-03-02T13:26:29;20.50;;;14.43;;
54929;SDS011;40833;53.238;6.576;2023-03-02T13:28:59;20.00;;;14.43;;
54929;SDS011;40833;53.238;6.576;2023-03-02T13:31:26;19.27;;;14.73;;
54929;SDS011;40833;53.238;6.576;2023-03-02T13:33:53;19.33;;;15.00;;
54929;SDS011;40833;53.238;6.576;2023-03-02T13:36:21;20.63;;;15.67;;
54929;SDS011;40833;53.238;6.576;2023-03-02T13:38:50;21.50;;;15.97;;
54929;SDS011;40833;53.238;6.576;2023-03-02T13:41:26;22.40;;;15.80;;
54929;SDS011;40833;53.238;6.576;2023-03-02T13:43:53;18.83;;;14.17;;
54929;SDS011;40833;53.238;6.576;2023-03-02T13:49:23;17.17;;;12.23;;
54929;SDS011;40833;53.238;6.576;2023-03-02T13:51:42;16.02;;;12.35;;
54929;SDS011;40833;53.238;6.576;2023-03-02T13:54:19;17.23;;;11.20;;
54929;SDS011;40833;53.238;6.576;2023-03-02T13:56:55;14.17;;;10.00;;
54929;SDS011;40833;53.238;6.576;2023-03-02T13:59:23;17.23;;;12.17;;
54929;SDS011;40833;53.238;6.576;2023-03-02T14:01:49;15.10;;;10.93;;
54929;SDS011;40833;53.238;6.576;2023-03-02T14:04:16;13.40;;;9.93;;
54929;SDS011;40833;53.238;6.576;2023-03-02T14:06:45;12.27;;;9.80;;
54929;SDS011;40833;53.238;6.576;2023-03-02T14:09:12;13.00;;;10.27;;
54929;SDS011;40833;53.238;6.576;2023-03-02T14:11:39;13.20;;;11.23;;
54929;SDS011;40833;53.238;6.576;2023-03-02T14:14:10;19.73;;;12.80;;
54929;SDS011;40833;53.238;6.576;2023-03-02T14:16:41;17.80;;;12.07;;
54929;SDS011;40833;53.238;6.576;2023-03-02T14:19:08;13.40;;;11.23;;
54929;SDS011;40833;53.238;6.576;2023-03-02T14:21:37;16.20;;;11.97;;
54929;SDS011;40833;53.238;6.576;2023-03-02T14:24:04;18.00;;;12.23;;
54929;SDS011;40833;53.238;6.576;2023-03-02T14:29:21;10.97;;;8.33;;
54929;SDS011;40833;53.238;6.576;2023-03-02T14:31:52;12.47;;;9.50;;
54929;SDS011;40833;53.238;6.576;2023-03-02T14:34:19;10.13;;;8.33;;
54929;SDS011;40833;53.238;6.576;2023-03-02T14:36:46;13.00;;;8.37;;
54929;SDS011;40833;53.238;6.576;2023-03-02T14:39:17;11.03;;;8.77;;
54929;SDS011;40833;53.238;6.576;2023-03-02T14:41:48;11.53;;;9.80;;
54929;SDS011;40833;53.238;6.576;2023-03-02T14:44:14;14.93;;;11.10;;
54929;SDS011;40833;53.238;6.576;2023-03-02T14:46:40;15.77;;;12.03;;
54929;SDS011;40833;53.238;6.576;2023-03-02T14:49:07;15.70;;;12.53;;
54929;SDS011;40833;53.238;6.576;2023-03-02T14:51:33;16.57;;;12.80;;
54929;SDS011;40833;53.238;6.576;2023-03-02T14:54:01;17.43;;;11.93;;
54929;SDS011;40833;53.238;6.576;2023-03-02T14:56:29;16.30;;;12.27;;
54929;SDS011;40833;53.238;6.576;2023-03-02T14:58:56;15.60;;;12.23;;
54929;SDS011;40833;53.238;6.576;2023-03-02T15:01:24;13.00;;;10.67;;
54929;SDS011;40833;53.238;6.576;2023-03-02T15:03:49;16.77;;;11.73;;
54929;SDS011;40833;53.238;6.576;2023-03-02T15:06:24;14.60;;;11.93;;
54929;SDS011;40833;53.238;6.576;2023-03-02T15:08:55;18.03;;;13.17;;
54929;SDS011;40833;53.238;6.576;2023-03-02T15:11:22;17.80;;;13.90;;
54929;SDS011;40833;53.238;6.576;2023-03-02T15:13:48;16.93;;;14.93;;
54929;SDS011;40833;53.238;6.576;2023-03-02T15:16:14;22.03;;;15.03;;